You are listening to:
KJFK Tower - New York, New York, United States

KJFK 271751Z 33007KT 10SM FEW028 BKN100 16/08 A3017 RMK AO2 SLP216 60000 T01560078 58008 $

If stream doesn't start automatically press the play button
If stream stops then reload player then press play